Time;durP1;ratioP1;P1;durP2;ratioP2;P2;SDS_P1;SDS_P2;PMS_P1;PMS_P2;Temp;Humidity;BMP_temperature;BMP_pressure;BME280_temperature;BME280_humidity;BME280_pressure;Samples;Min_cycle;Max_cycle;Signal;HPM_P1;HPM_P2
2022/03/15 00:01:32;;;;;;;14.00;6.90;;;6.30;88.90;;;;;;4996203;28;21014;-47
2022/03/15 00:03:59;;;;;;;8.80;6.77;;;6.30;89.50;;;;;;4997658;28;20506;-47
2022/03/15 00:06:26;;;;;;;8.53;7.00;;;6.30;89.80;;;;;;5001965;28;20482;-48
2022/03/15 00:08:52;;;;;;;11.30;6.20;;;6.40;89.10;;;;;;4996966;28;20488;-47
2022/03/15 00:11:19;;;;;;;11.00;6.70;;;6.40;89.00;;;;;;4997075;28;20476;-47
2022/03/15 00:13:48;;;;;;;7.53;6.30;;;6.40;89.30;;;;;;4996415;28;21236;-47
2022/03/15 00:16:15;;;;;;;12.80;7.33;;;6.40;88.90;;;;;;4994881;28;20585;-47
2022/03/15 00:18:42;;;;;;;8.87;7.63;;;6.30;89.50;;;;;;4996358;28;20504;-47
2022/03/15 00:21:10;;;;;;;11.37;6.77;;;6.30;90.00;;;;;;4997312;28;20490;-47
2022/03/15 00:23:37;;;;;;;15.90;8.70;;;6.40;89.90;;;;;;4995649;28;20574;-47
2022/03/15 00:26:03;;;;;;;12.67;8.77;;;6.50;90.20;;;;;;4997006;28;20483;-47
2022/03/15 00:28:31;;;;;;;12.10;6.77;;;6.50;90.40;;;;;;5000321;28;20546;-48
2022/03/15 00:30:59;;;;;;;19.00;9.20;;;6.50;90.00;;;;;;5000187;28;20492;-47
2022/03/15 00:33:26;;;;;;;15.20;9.47;;;6.50;90.20;;;;;;5001089;28;20497;-47
2022/03/15 00:35:53;;;;;;;13.87;9.50;;;6.50;90.40;;;;;;4987426;28;20462;-46
2022/03/15 00:38:20;;;;;;;17.63;11.03;;;6.60;90.30;;;;;;4999811;28;20987;-47
2022/03/15 00:40:47;;;;;;;13.60;10.23;;;6.60;90.60;;;;;;4983174;28;20492;-47
2022/03/15 00:43:14;;;;;;;15.93;11.90;;;6.60;90.70;;;;;;4998757;28;20500;-48
2022/03/15 00:45:40;;;;;;;16.70;9.80;;;6.70;90.80;;;;;;4999705;28;20505;-48
2022/03/15 00:48:09;;;;;;;15.33;9.57;;;6.70;91.10;;;;;;4996956;28;20493;-48
2022/03/15 00:50:39;;;;;;;26.23;11.00;;;6.70;90.90;;;;;;4993924;28;20511;-48
2022/03/15 00:53:06;;;;;;;22.90;11.40;;;6.70;91.00;;;;;;4984562;28;20494;-48
2022/03/15 00:55:33;;;;;;;15.73;12.10;;;6.70;91.30;;;;;;4998992;28;20565;-48
2022/03/15 00:58:00;;;;;;;20.00;12.03;;;6.70;91.40;;;;;;4995238;28;20478;-49
2022/03/15 01:00:27;;;;;;;17.93;10.93;;;6.80;91.10;;;;;;4989562;28;21030;-47
2022/03/15 01:02:54;;;;;;;21.27;11.70;;;6.80;91.40;;;;;;4991492;28;20491;-48
2022/03/15 01:05:22;;;;;;;14.47;10.67;;;6.80;91.40;;;;;;4998664;28;20492;-48
2022/03/15 01:07:49;;;;;;;17.93;11.00;;;6.90;90.80;;;;;;4996857;28;20539;-47
2022/03/15 01:10:15;;;;;;;19.27;13.33;;;6.90;91.00;;;;;;4974761;28;20590;-47
2022/03/15 01:12:42;;;;;;;21.30;13.40;;;6.90;91.70;;;;;;4993608;28;20491;-47
2022/03/15 01:15:10;;;;;;;21.20;12.27;;;7.00;91.50;;;;;;5000308;28;20488;-47
2022/03/15 01:17:36;;;;;;;19.37;11.63;;;7.00;91.70;;;;;;4996364;28;20493;-48
2022/03/15 01:20:04;;;;;;;15.73;11.40;;;7.00;91.50;;;;;;4997197;28;20671;-47
2022/03/15 01:22:32;;;;;;;19.20;11.50;;;7.10;90.90;;;;;;5003446;28;20501;-47
2022/03/15 01:24:59;;;;;;;17.97;11.40;;;7.10;91.20;;;;;;4999492;28;20995;-47
2022/03/15 01:27:26;;;;;;;15.13;11.20;;;7.10;91.10;;;;;;5006150;28;20489;-47
2022/03/15 01:29:54;;;;;;;21.00;12.67;;;7.20;91.10;;;;;;4989009;28;20768;-47
2022/03/15 01:32:20;;;;;;;16.17;11.30;;;7.10;91.40;;;;;;5004191;28;20485;-47
2022/03/15 01:34:47;;;;;;;16.00;11.70;;;7.10;91.50;;;;;;5002619;28;20546;-47
2022/03/15 01:37:14;;;;;;;16.80;10.53;;;7.20;91.00;;;;;;5003772;28;20489;-47
2022/03/15 01:39:42;;;;;;;17.03;10.80;;;7.10;91.20;;;;;;5001877;28;20494;-48
2022/03/15 01:42:09;;;;;;;17.93;10.30;;;7.20;91.10;;;;;;5003499;28;20496;-47
2022/03/15 01:44:37;;;;;;;15.30;10.73;;;7.10;91.10;;;;;;4986860;28;20495;-48
2022/03/15 01:47:04;;;;;;;19.67;12.47;;;7.10;91.20;;;;;;4996208;28;20509;-47
2022/03/15 01:49:31;;;;;;;16.00;11.37;;;7.10;91.10;;;;;;4994338;28;20492;-47
2022/03/15 01:51:58;;;;;;;17.10;11.50;;;7.10;91.30;;;;;;4998503;28;21358;-47
2022/03/15 01:54:24;;;;;;;21.43;10.07;;;7.20;91.20;;;;;;5002785;28;20589;-47
2022/03/15 01:56:52;;;;;;;15.60;10.03;;;7.10;91.30;;;;;;5000775;28;20478;-47
2022/03/15 01:59:19;;;;;;;19.37;12.43;;;7.10;91.20;;;;;;4999400;28;20540;-47
2022/03/15 02:01:47;;;;;;;12.33;10.30;;;7.10;91.40;;;;;;5002098;28;20482;-47
2022/03/15 02:04:15;;;;;;;17.23;11.13;;;7.10;91.00;;;;;;5001010;28;20486;-47
2022/03/15 02:06:42;;;;;;;18.67;11.90;;;7.10;91.20;;;;;;5001850;28;20498;-47
2022/03/15 02:09:10;;;;;;;15.73;11.73;;;7.10;91.60;;;;;;4999500;28;20546;-49
2022/03/15 02:11:37;;;;;;;17.77;11.40;;;7.10;91.10;;;;;;4989378;28;20544;-48
2022/03/15 02:14:06;;;;;;;22.63;11.87;;;7.10;91.30;;;;;;4997631;28;20484;-47
2022/03/15 02:16:33;;;;;;;14.77;11.90;;;7.20;91.10;;;;;;4992164;28;20483;-47
2022/03/15 02:19:01;;;;;;;16.67;12.30;;;7.20;91.40;;;;;;4996924;28;20964;-47
2022/03/15 02:21:30;;;;;;;16.80;11.90;;;7.20;91.60;;;;;;4999592;28;20490;-47
2022/03/15 02:23:57;;;;;;;20.50;13.20;;;7.20;91.70;;;;;;4998222;28;20502;-47
2022/03/15 02:26:24;;;;;;;17.97;12.40;;;7.20;91.10;;;;;;5001650;28;20500;-47
2022/03/15 02:28:51;;;;;;;24.70;13.27;;;7.20;91.40;;;;;;5001042;28;20926;-47
2022/03/15 02:31:20;;;;;;;20.60;12.97;;;7.20;91.40;;;;;;5002017;28;20487;-47
2022/03/15 02:33:46;;;;;;;21.27;12.03;;;7.20;91.50;;;;;;4993357;28;20487;-47
2022/03/15 02:36:15;;;;;;;21.87;11.73;;;7.20;91.70;;;;;;4988879;28;20490;-47
2022/03/15 02:38:43;;;;;;;21.17;12.30;;;7.20;91.90;;;;;;4990217;28;20566;-47
2022/03/15 02:41:10;;;;;;;17.33;10.70;;;7.20;91.30;;;;;;4987318;28;20541;-47
2022/03/15 02:43:37;;;;;;;18.50;11.63;;;7.20;91.50;;;;;;4998008;28;20496;-47
2022/03/15 02:46:04;;;;;;;17.20;10.57;;;7.20;91.60;;;;;;5000989;28;20497;-47
2022/03/15 02:48:31;;;;;;;19.00;11.53;;;7.10;91.60;;;;;;5001897;28;20474;-47
2022/03/15 02:50:58;;;;;;;13.10;11.07;;;7.20;91.90;;;;;;4998714;28;20503;-47
2022/03/15 02:53:25;;;;;;;15.13;11.90;;;7.20;91.90;;;;;;5000050;28;20544;-48
2022/03/15 02:55:53;;;;;;;12.53;10.33;;;7.20;91.50;;;;;;5000228;28;20493;-47
2022/03/15 02:58:20;;;;;;;15.40;10.90;;;7.20;91.80;;;;;;5003229;28;20491;-47
2022/03/15 03:00:47;;;;;;;22.70;10.97;;;7.20;91.60;;;;;;4996132;28;20504;-48
2022/03/15 03:03:14;;;;;;;18.37;10.70;;;7.20;91.50;;;;;;4997765;28;20497;-47
2022/03/15 03:05:40;;;;;;;16.57;12.30;;;7.20;91.80;;;;;;4989962;28;20883;-47
2022/03/15 03:08:07;;;;;;;15.13;11.30;;;7.20;91.90;;;;;;4989254;28;20940;-48
2022/03/15 03:10:34;;;;;;;18.17;11.30;;;7.20;91.60;;;;;;4996277;28;20494;-47
2022/03/15 03:13:02;;;;;;;18.00;11.70;;;7.20;91.90;;;;;;5000777;28;20473;-47
2022/03/15 03:15:32;;;;;;;13.43;10.90;;;7.20;91.70;;;;;;5001414;28;20506;-47
2022/03/15 03:17:59;;;;;;;21.37;11.30;;;7.30;91.30;;;;;;4999893;28;20483;-47
2022/03/15 03:20:27;;;;;;;12.70;9.77;;;7.30;91.60;;;;;;4994279;28;20490;-47
2022/03/15 03:22:55;;;;;;;13.30;10.77;;;7.30;91.50;;;;;;4993425;28;20499;-48
2022/03/15 03:25:22;;;;;;;15.17;9.37;;;7.30;91.30;;;;;;5000214;28;20485;-47
2022/03/15 03:27:48;;;;;;;12.47;10.43;;;7.30;91.50;;;;;;5001419;28;20545;-48
2022/03/15 03:30:16;;;;;;;18.83;11.73;;;7.30;91.50;;;;;;4998949;28;20839;-48
2022/03/15 03:32:43;;;;;;;20.77;11.80;;;7.30;91.80;;;;;;4990044;28;20560;-48
2022/03/15 03:35:10;;;;;;;16.60;10.43;;;7.30;92.00;;;;;;4999193;28;20471;-48
2022/03/15 03:37:37;;;;;;;13.93;10.50;;;7.30;91.80;;;;;;4994004;28;20834;-48
2022/03/15 03:40:07;;;;;;;16.83;10.30;;;7.30;91.50;;;;;;4995675;28;21030;-48
2022/03/15 03:42:35;;;;;;;15.73;11.17;;;7.30;91.70;;;;;;4999266;28;20484;-48
2022/03/15 03:45:02;;;;;;;20.60;10.73;;;7.30;91.70;;;;;;4999663;28;20474;-48
2022/03/15 03:47:30;;;;;;;19.63;10.90;;;7.40;91.90;;;;;;4999755;28;20578;-48
2022/03/15 03:49:57;;;;;;;13.73;10.90;;;7.40;92.00;;;;;;4988665;28;21056;-48
2022/03/15 03:52:24;;;;;;;15.60;11.07;;;7.40;91.70;;;;;;5000479;28;20976;-49
2022/03/15 03:54:51;;;;;;;19.07;10.73;;;7.40;91.90;;;;;;5000783;28;20481;-48
2022/03/15 03:57:19;;;;;;;15.13;11.40;;;7.40;91.90;;;;;;4987239;28;20500;-48
2022/03/15 03:59:46;;;;;;;18.73;11.73;;;7.30;91.70;;;;;;4998054;28;20500;-48
2022/03/15 04:02:13;;;;;;;17.53;11.80;;;7.30;92.00;;;;;;4994484;28;20488;-48
2022/03/15 04:04:41;;;;;;;16.97;12.73;;;7.30;91.90;;;;;;5001307;28;20493;-47
2022/03/15 04:07:11;;;;;;;16.17;12.83;;;7.30;91.70;;;;;;4993730;28;20490;-48
2022/03/15 04:09:38;;;;;;;17.63;12.60;;;7.30;92.30;;;;;;4996593;28;20556;-47
2022/03/15 04:12:06;;;;;;;24.10;12.33;;;7.40;91.90;;;;;;4999304;28;21157;-47
2022/03/15 04:14:34;;;;;;;22.63;14.70;;;7.50;91.50;;;;;;4975413;28;20489;-48
2022/03/15 04:17:01;;;;;;;46.23;25.13;;;7.50;91.80;;;;;;4986853;28;20960;-47
2022/03/15 04:19:27;;;;;;;30.90;18.77;;;7.50;91.80;;;;;;5006768;28;20493;-48
2022/03/15 04:21:56;;;;;;;13.83;10.93;;;7.40;91.50;;;;;;4997829;28;21047;-47
2022/03/15 04:24:23;;;;;;;19.63;10.70;;;7.40;91.80;;;;;;4994139;28;20488;-47
2022/03/15 04:26:49;;;;;;;18.10;11.27;;;7.40;91.80;;;;;;4991654;28;20497;-47
2022/03/15 04:29:16;;;;;;;24.17;12.10;;;7.10;92.20;;;;;;5000055;28;20567;-48
2022/03/15 04:31:43;;;;;;;14.70;10.87;;;7.10;92.40;;;;;;4991390;28;20503;-48
2022/03/15 04:34:10;;;;;;;17.17;11.60;;;7.10;92.20;;;;;;4997395;28;20485;-48
2022/03/15 04:36:36;;;;;;;18.87;11.43;;;6.70;92.40;;;;;;5001827;28;20488;-48
2022/03/15 04:39:05;;;;;;;15.47;12.63;;;6.70;92.70;;;;;;4996841;28;20534;-48
2022/03/15 04:41:32;;;;;;;14.50;10.37;;;6.60;93.00;;;;;;4993618;28;20486;-48
2022/03/15 04:43:58;;;;;;;24.63;14.27;;;6.30;93.70;;;;;;4993230;28;20900;-48
2022/03/15 04:46:25;;;;;;;19.43;12.27;;;6.30;94.00;;;;;;4985644;28;20779;-48
2022/03/15 04:48:53;;;;;;;17.40;12.10;;;6.30;94.30;;;;;;4998109;28;20501;-48
2022/03/15 04:51:20;;;;;;;26.33;13.20;;;6.60;93.50;;;;;;4999067;28;20580;-48
2022/03/15 04:53:47;;;;;;;18.90;12.10;;;6.60;93.80;;;;;;4995581;28;20504;-48
2022/03/15 04:56:15;;;;;;;15.60;10.07;;;6.80;93.50;;;;;;4997356;28;20488;-48
2022/03/15 04:58:42;;;;;;;14.20;10.57;;;7.00;92.80;;;;;;5002673;28;20510;-47
2022/03/15 05:01:09;;;;;;;15.90;11.87;;;7.00;93.00;;;;;;5002997;28;20550;-48
2022/03/15 05:03:36;;;;;;;14.20;11.27;;;7.00;93.00;;;;;;5001715;28;20485;-48
2022/03/15 05:06:04;;;;;;;19.20;11.60;;;7.20;92.40;;;;;;5003371;28;20902;-48
2022/03/15 05:08:31;;;;;;;16.80;10.73;;;7.20;92.70;;;;;;4999780;28;20480;-47
2022/03/15 05:11:07;;;;;;;12.47;10.17;;;7.10;92.50;;;;;;5000221;28;20540;-47
2022/03/15 05:13:36;;;;;;;15.53;10.70;;;7.10;92.70;;;;;;5003020;28;20480;-48
2022/03/15 05:16:03;;;;;;;23.70;10.43;;;7.00;93.00;;;;;;4998248;28;20542;-48
2022/03/15 05:18:30;;;;;;;14.97;11.33;;;7.10;92.80;;;;;;4997454;28;20479;-48
2022/03/15 05:20:56;;;;;;;19.17;12.20;;;7.10;93.10;;;;;;4999624;28;20524;-48
2022/03/15 05:23:23;;;;;;;19.63;13.17;;;7.20;92.90;;;;;;5000077;28;20485;-48
2022/03/15 05:25:50;;;;;;;24.30;10.60;;;7.30;92.40;;;;;;4999592;28;20505;-48
2022/03/15 05:28:17;;;;;;;15.40;10.40;;;7.30;92.70;;;;;;5000074;28;20555;-48
2022/03/15 05:30:45;;;;;;;19.53;12.57;;;7.30;92.60;;;;;;4989960;28;20534;-49
2022/03/15 05:33:11;;;;;;;15.03;12.60;;;7.40;92.30;;;;;;5005636;28;20506;-49
2022/03/15 05:35:38;;;;;;;17.50;11.97;;;7.40;92.60;;;;;;5001372;28;20508;-48
2022/03/15 05:38:05;;;;;;;13.33;10.63;;;7.40;92.50;;;;;;4995586;28;20479;-48
2022/03/15 05:40:32;;;;;;;17.50;11.10;;;7.40;92.50;;;;;;4997314;28;20474;-48
2022/03/15 05:42:59;;;;;;;13.37;9.00;;;7.30;92.50;;;;;;4998793;28;20482;-48
2022/03/15 05:45:26;;;;;;;20.40;10.60;;;7.20;92.60;;;;;;5000173;28;20474;-48
2022/03/15 05:47:54;;;;;;;16.37;9.10;;;6.80;93.20;;;;;;5000410;28;20576;-48
2022/03/15 05:50:21;;;;;;;17.30;11.00;;;6.70;93.40;;;;;;5001824;28;20903;-48
2022/03/15 05:52:47;;;;;;;12.73;10.80;;;6.70;93.80;;;;;;5001850;28;20565;-47
2022/03/15 05:55:14;;;;;;;13.30;11.03;;;6.80;93.60;;;;;;5003138;28;20519;-48
2022/03/15 05:57:42;;;;;;;19.03;12.33;;;6.70;93.80;;;;;;4998510;28;20483;-48
2022/03/15 06:00:10;;;;;;;16.63;12.10;;;6.90;93.60;;;;;;4998584;28;20474;-48
2022/03/15 06:02:37;;;;;;;16.53;10.10;;;7.00;93.20;;;;;;4996558;28;20554;-48
2022/03/15 06:05:07;;;;;;;14.10;9.80;;;7.00;93.50;;;;;;5001024;28;20488;-48
2022/03/15 06:07:34;;;;;;;13.17;9.50;;;7.10;93.30;;;;;;4996007;28;20506;-48
2022/03/15 06:10:00;;;;;;;23.63;11.43;;;7.10;93.00;;;;;;5001863;28;21294;-47
2022/03/15 06:12:27;;;;;;;14.17;9.83;;;7.00;93.20;;;;;;5003859;28;20492;-48
2022/03/15 06:14:54;;;;;;;17.70;11.40;;;7.00;93.40;;;;;;4997724;28;20941;-48
2022/03/15 06:17:21;;;;;;;16.43;11.13;;;7.00;93.40;;;;;;5001931;28;20495;-48
2022/03/15 06:19:48;;;;;;;12.20;9.53;;;7.00;93.40;;;;;;4998703;28;21377;-48
2022/03/15 06:22:16;;;;;;;15.00;10.07;;;6.80;93.80;;;;;;4992224;28;20961;-48
2022/03/15 06:24:42;;;;;;;16.60;9.93;;;7.00;93.70;;;;;;5009698;28;20473;-48
2022/03/15 06:27:09;;;;;;;16.53;11.00;;;7.00;94.00;;;;;;5001519;28;20488;-48
2022/03/15 06:29:36;;;;;;;17.37;11.47;;;7.10;93.80;;;;;;4999106;28;20491;-49
2022/03/15 06:32:03;;;;;;;12.20;9.47;;;7.20;93.50;;;;;;5000571;28;20485;-48
2022/03/15 06:34:30;;;;;;;18.10;10.90;;;7.20;93.80;;;;;;5001173;28;20492;-48
2022/03/15 06:36:58;;;;;;;18.37;11.33;;;7.30;93.70;;;;;;5002662;28;20481;-48
2022/03/15 06:39:26;;;;;;;20.50;11.00;;;7.40;93.10;;;;;;5001789;28;20500;-48
2022/03/15 06:41:53;;;;;;;16.80;10.60;;;7.50;93.40;;;;;;4998403;28;20483;-50
2022/03/15 06:44:20;;;;;;;15.10;10.10;;;7.50;93.40;;;;;;5000887;28;20500;-48
2022/03/15 06:46:47;;;;;;;13.57;10.10;;;7.70;93.00;;;;;;4998574;28;20481;-48
2022/03/15 06:49:13;;;;;;;19.33;10.30;;;7.80;92.90;;;;;;4993190;28;21011;-48
2022/03/15 06:51:40;;;;;;;16.73;10.63;;;7.80;93.10;;;;;;5007687;28;20478;-48
2022/03/15 06:54:07;;;;;;;21.20;10.90;;;7.80;92.90;;;;;;5005725;28;20629;-48
2022/03/15 06:56:39;;;;;;;19.03;11.27;;;7.80;93.20;;;;;;4996764;28;20486;-48
2022/03/15 06:59:06;;;;;;;12.87;9.93;;;7.90;93.00;;;;;;5003118;28;21118;-48
2022/03/15 07:01:32;;;;;;;28.20;14.13;;;8.00;92.50;;;;;;4998616;28;20553;-48
2022/03/15 07:03:59;;;;;;;26.63;18.07;;;8.00;92.80;;;;;;4998644;28;20489;-48
2022/03/15 07:06:26;;;;;;;26.33;16.03;;;8.10;92.90;;;;;;5002149;28;20477;-48
2022/03/15 07:08:52;;;;;;;23.07;14.43;;;7.90;93.10;;;;;;4998000;28;20468;-48
2022/03/15 07:11:19;;;;;;;20.50;15.17;;;8.00;93.40;;;;;;5003054;28;20539;-48
2022/03/15 07:13:47;;;;;;;20.43;13.60;;;8.00;93.20;;;;;;4993446;28;20477;-48
2022/03/15 07:16:14;;;;;;;21.20;12.90;;;8.10;92.80;;;;;;4997166;28;20494;-48
2022/03/15 07:18:41;;;;;;;22.03;13.73;;;8.20;92.80;;;;;;4997482;28;20972;-48
2022/03/15 07:21:07;;;;;;;23.87;14.13;;;8.20;93.00;;;;;;4998224;28;20490;-48
2022/03/15 07:23:34;;;;;;;46.83;14.03;;;8.30;92.70;;;;;;4996571;28;20484;-48
2022/03/15 07:26:01;;;;;;;19.77;11.27;;;8.30;93.00;;;;;;5005370;28;20505;-47
2022/03/15 07:28:27;;;;;;;16.83;12.90;;;8.30;93.20;;;;;;4998279;28;20489;-48
2022/03/15 07:30:55;;;;;;;18.50;13.10;;;8.30;93.10;;;;;;4997661;28;20502;-48
2022/03/15 07:33:22;;;;;;;20.10;13.60;;;8.30;93.20;;;;;;4994529;28;20786;-49
2022/03/15 07:35:48;;;;;;;20.83;13.50;;;8.20;93.60;;;;;;4997154;28;20976;-47
2022/03/15 07:38:17;;;;;;;15.93;13.07;;;8.20;93.90;;;;;;4996126;28;20987;-48
2022/03/15 07:40:44;;;;;;;18.03;12.40;;;8.30;93.90;;;;;;4999007;28;20488;-48
2022/03/15 07:43:11;;;;;;;16.90;12.30;;;8.30;93.60;;;;;;4999195;28;20492;-48
2022/03/15 07:45:38;;;;;;;22.87;11.60;;;8.40;93.60;;;;;;5000842;28;20577;-48
2022/03/15 07:48:07;;;;;;;24.50;12.10;;;8.40;93.80;;;;;;4999428;28;20712;-48
2022/03/15 07:50:34;;;;;;;13.73;11.60;;;8.40;93.90;;;;;;4998423;28;20475;-48
2022/03/15 07:53:01;;;;;;;27.80;11.77;;;8.40;93.90;;;;;;4997066;28;20564;-49
2022/03/15 07:55:27;;;;;;;18.77;12.30;;;8.40;94.10;;;;;;4999733;28;20487;-48
2022/03/15 07:57:54;;;;;;;17.50;13.83;;;8.50;94.10;;;;;;4994705;28;20480;-49
2022/03/15 08:00:21;;;;;;;25.93;16.40;;;8.60;93.90;;;;;;5006727;28;20486;-48
2022/03/15 08:02:48;;;;;;;27.07;16.10;;;8.50;94.10;;;;;;4998345;28;20919;-49
2022/03/15 08:05:16;;;;;;;28.67;19.00;;;8.60;94.10;;;;;;4988961;28;20485;-49
2022/03/15 08:07:42;;;;;;;23.83;12.13;;;8.60;93.90;;;;;;4986480;28;20631;-48
2022/03/15 08:10:11;;;;;;;18.60;10.90;;;8.60;94.10;;;;;;4999165;28;20486;-48
2022/03/15 08:12:38;;;;;;;21.30;12.20;;;8.70;94.20;;;;;;4987854;28;20582;-48
2022/03/15 08:15:06;;;;;;;20.27;11.33;;;8.70;93.90;;;;;;4998070;28;20894;-48
2022/03/15 08:17:35;;;;;;;17.77;10.70;;;8.70;94.20;;;;;;5001382;28;20484;-48
2022/03/15 08:20:01;;;;;;;15.70;11.27;;;8.70;93.90;;;;;;4995809;28;20898;-49
2022/03/15 08:22:30;;;;;;;15.87;12.27;;;8.80;94.20;;;;;;5000939;28;20485;-48
2022/03/15 08:24:58;;;;;;;13.30;11.07;;;8.70;94.40;;;;;;4998330;28;21196;-48
2022/03/15 08:27:25;;;;;;;15.97;10.87;;;8.80;94.40;;;;;;5001949;28;20466;-48
2022/03/15 08:29:52;;;;;;;17.00;10.37;;;8.80;94.30;;;;;;5005696;28;20845;-48
2022/03/15 08:32:18;;;;;;;22.83;14.00;;;8.80;94.60;;;;;;5002876;28;25553;-48
2022/03/15 08:34:45;;;;;;;20.60;9.80;;;8.90;94.60;;;;;;4976674;28;20486;-49
2022/03/15 08:37:12;;;;;;;16.10;9.67;;;8.90;94.50;;;;;;4983004;28;20554;-49
2022/03/15 08:39:40;;;;;;;13.87;8.83;;;9.00;94.80;;;;;;5012262;28;20485;-49
2022/03/15 08:42:09;;;;;;;13.30;7.97;;;9.00;95.00;;;;;;4999374;28;21666;-49
2022/03/15 08:44:36;;;;;;;17.23;10.17;;;9.00;95.00;;;;;;4994778;28;20495;-48
2022/03/15 08:47:03;;;;;;;20.00;9.37;;;9.00;95.00;;;;;;4979782;28;20484;-49
2022/03/15 08:49:29;;;;;;;13.27;10.90;;;9.00;95.10;;;;;;5003700;28;20490;-48
2022/03/15 08:51:56;;;;;;;23.27;12.63;;;9.10;95.00;;;;;;5003850;28;20855;-48
2022/03/15 08:54:26;;;;;;;16.03;11.27;;;9.10;95.00;;;;;;4997472;28;20489;-49
2022/03/15 08:56:54;;;;;;;17.23;11.43;;;9.00;95.20;;;;;;5001761;28;20490;-48
2022/03/15 08:59:21;;;;;;;17.40;11.63;;;9.10;95.10;;;;;;5001951;28;20477;-48
2022/03/15 09:01:48;;;;;;;13.03;9.40;;;9.10;95.10;;;;;;4998212;28;20478;-49
2022/03/15 09:04:15;;;;;;;14.80;9.30;;;9.20;95.10;;;;;;5001352;28;20981;-48
2022/03/15 09:06:42;;;;;;;11.93;8.33;;;9.10;95.10;;;;;;5001620;28;20488;-48
2022/03/15 09:09:09;;;;;;;13.47;7.77;;;9.20;95.10;;;;;;4990203;28;20578;-48
2022/03/15 09:11:36;;;;;;;20.90;9.63;;;9.20;95.20;;;;;;5003969;28;20545;-48
2022/03/15 09:14:04;;;;;;;15.53;11.80;;;9.30;95.20;;;;;;5002109;28;23012;-48
2022/03/15 09:16:31;;;;;;;13.47;8.93;;;9.30;95.30;;;;;;5003467;28;20501;-48
2022/03/15 09:18:59;;;;;;;16.00;8.57;;;9.40;95.20;;;;;;5002432;28;20497;-48
2022/03/15 09:21:26;;;;;;;15.93;8.60;;;9.50;95.40;;;;;;5001679;28;20997;-48
2022/03/15 09:23:55;;;;;;;12.07;8.30;;;9.50;95.30;;;;;;5000802;28;20545;-49
2022/03/15 09:26:22;;;;;;;26.23;9.80;;;9.60;95.40;;;;;;5003959;28;20474;-48
2022/03/15 09:28:50;;;;;;;15.93;9.90;;;9.60;95.40;;;;;;5002427;28;20480;-48
2022/03/15 09:31:20;;;;;;;10.70;8.57;;;9.60;95.30;;;;;;5002410;28;20548;-49
2022/03/15 09:33:47;;;;;;;16.27;7.87;;;;;;;;;;4998383;28;21007;-49
2022/03/15 09:36:15;;;;;;;15.90;8.77;;;9.80;95.60;;;;;;5001679;28;20484;-48
2022/03/15 09:38:42;;;;;;;22.70;8.47;;;9.80;95.50;;;;;;4999589;28;20477;-48
2022/03/15 09:41:09;;;;;;;16.70;7.97;;;9.90;95.60;;;;;;5000587;28;20482;-49
2022/03/15 09:43:38;;;;;;;8.97;7.27;;;9.90;95.70;;;;;;4994180;28;20586;-48
2022/03/15 09:46:06;;;;;;;10.90;7.60;;;9.80;95.50;;;;;;5000116;28;20479;-49
2022/03/15 09:48:35;;;;;;;12.70;6.60;;;9.90;95.50;;;;;;5001672;28;20477;-48
2022/03/15 09:51:04;;;;;;;12.00;8.37;;;9.90;95.50;;;;;;5001917;28;20941;-49
2022/03/15 09:53:34;;;;;;;14.93;8.50;;;9.90;95.90;;;;;;4996214;28;20492;-48
2022/03/15 09:56:01;;;;;;;28.87;9.70;;;9.90;96.00;;;;;;5000633;28;20884;-49
2022/03/15 09:58:28;;;;;;;13.33;8.30;;;10.00;95.50;;;;;;5000354;28;20482;-48
2022/03/15 10:00:56;;;;;;;22.13;9.40;;;10.00;95.50;;;;;;5002469;28;20481;-49
2022/03/15 10:03:22;;;;;;;14.20;9.03;;;10.00;95.60;;;;;;5001097;28;20489;-48
2022/03/15 10:05:51;;;;;;;19.60;10.37;;;10.10;95.70;;;;;;4999184;28;20487;-48
2022/03/15 10:08:18;;;;;;;9.70;7.53;;;10.10;95.60;;;;;;5001870;28;20480;-51
2022/03/15 10:10:49;;;;;;;10.60;8.40;;;10.00;95.70;;;;;;4994411;28;20482;-48
2022/03/15 10:13:16;;;;;;;12.10;8.53;;;10.10;95.80;;;;;;4991648;28;20970;-48
2022/03/15 10:15:51;;;;;;;21.10;9.77;;;10.10;95.80;;;;;;5000754;28;20475;-48
2022/03/15 10:18:19;;;;;;;14.87;9.17;;;10.20;95.70;;;;;;4988194;28;20476;-48
2022/03/15 10:20:48;;;;;;;11.43;8.00;;;10.30;95.70;;;;;;5001771;28;21007;-50
2022/03/15 10:23:18;;;;;;;14.67;8.10;;;10.30;95.70;;;;;;5003227;28;20485;-48
2022/03/15 10:25:49;;;;;;;16.53;10.50;;;10.40;95.50;;;;;;5000876;28;20499;-48
2022/03/15 10:28:16;;;;;;;12.77;8.43;;;10.40;95.70;;;;;;4998853;28;20494;-48
2022/03/15 10:30:44;;;;;;;9.10;6.53;;;10.40;95.30;;;;;;4988494;28;20471;-48
2022/03/15 10:33:11;;;;;;;12.77;7.53;;;10.40;95.60;;;;;;5000567;28;20543;-48
2022/03/15 10:35:40;;;;;;;9.97;6.57;;;10.50;95.90;;;;;;5002584;28;20493;-48
2022/03/15 10:38:08;;;;;;;11.77;8.03;;;10.70;96.00;;;;;;4996378;28;21146;-48
2022/03/15 10:40:38;;;;;;;21.07;13.57;;;10.70;95.90;;;;;;4990026;28;20578;-48
2022/03/15 10:43:08;;;;;;;16.00;10.97;;;10.70;95.80;;;;;;5007882;28;20479;-48
2022/03/15 10:45:38;;;;;;;13.23;11.87;;;10.70;95.80;;;;;;5002147;28;20482;-48
2022/03/15 10:48:15;;;;;;;10.10;7.57;;;10.70;96.00;;;;;;5000536;28;20485;-49
2022/03/15 10:50:51;;;;;;;8.87;5.97;;;10.70;95.90;;;;;;4999461;28;20505;-48
2022/03/15 10:53:18;;;;;;;10.47;5.60;;;10.70;95.80;;;;;;5004793;28;20474;-48
2022/03/15 10:55:46;;;;;;;10.13;5.63;;;10.70;96.20;;;;;;5003239;28;20480;-48
2022/03/15 10:58:15;;;;;;;16.03;7.50;;;10.80;96.10;;;;;;4999524;28;20993;-48
2022/03/15 11:00:43;;;;;;;10.70;8.73;;;10.90;96.10;;;;;;4987299;28;20486;-48
2022/03/15 11:03:13;;;;;;;9.53;5.40;;;10.90;95.70;;;;;;5001402;28;20980;-48
2022/03/15 11:05:41;;;;;;;10.53;7.30;;;10.80;96.10;;;;;;5000451;28;20480;-48
2022/03/15 11:08:10;;;;;;;15.30;8.73;;;10.90;96.20;;;;;;5001432;28;20488;-48
2022/03/15 11:10:38;;;;;;;17.43;10.90;;;11.00;96.20;;;;;;4997405;28;20538;-49
2022/03/15 11:13:11;;;;;;;19.67;11.50;;;11.00;96.10;;;;;;4999900;28;20504;-49
2022/03/15 11:15:40;;;;;;;19.60;10.87;;;11.10;96.00;;;;;;4999895;28;21034;-49
2022/03/15 11:18:08;;;;;;;17.67;10.60;;;;;;;;;;4998273;28;20578;-48
2022/03/15 11:20:36;;;;;;;25.87;11.30;;;11.10;96.10;;;;;;5000767;28;20480;-48
2022/03/15 11:23:07;;;;;;;20.70;10.00;;;11.20;95.80;;;;;;5001743;28;20488;-49
2022/03/15 11:25:38;;;;;;;20.87;7.03;;;11.20;95.80;;;;;;5000384;28;20488;-48
2022/03/15 11:28:10;;;;;;;16.87;10.10;;;11.30;95.60;;;;;;5000316;28;20504;-49
2022/03/15 11:30:37;;;;;;;18.67;10.60;;;11.30;95.60;;;;;;4995756;28;20500;-48
2022/03/15 11:33:06;;;;;;;15.20;10.30;;;11.40;95.90;;;;;;4998192;28;21220;-48
2022/03/15 11:35:34;;;;;;;18.60;11.97;;;11.40;96.00;;;;;;5001092;28;20588;-48
2022/03/15 11:38:04;;;;;;;14.80;10.50;;;11.50;95.90;;;;;;5000046;28;20514;-48
2022/03/15 11:40:32;;;;;;;15.47;9.10;;;11.50;95.90;;;;;;4997191;28;20513;-49
2022/03/15 11:43:11;;;;;;;16.73;10.10;;;11.60;95.90;;;;;;5000266;28;20487;-51
2022/03/15 11:45:43;;;;;;;14.53;7.47;;;11.70;95.90;;;;;;4990652;28;20483;-48
2022/03/15 11:48:13;;;;;;;20.03;6.87;;;11.80;96.00;;;;;;5000399;28;20492;-48
2022/03/15 11:50:52;;;;;;;9.50;5.40;;;11.90;96.00;;;;;;5000035;28;20529;-49
2022/03/15 11:53:29;;;;;;;13.50;8.40;;;12.00;96.00;;;;;;4997091;28;20543;-48
2022/03/15 11:56:03;;;;;;;13.43;8.30;;;12.00;96.00;;;;;;4986660;28;20482;-48
2022/03/15 11:58:32;;;;;;;11.83;7.27;;;12.00;96.00;;;;;;4983152;28;20944;-49
2022/03/15 12:01:10;;;;;;;15.47;6.23;;;12.10;95.90;;;;;;4988474;28;21140;-48
2022/03/15 12:03:45;;;;;;;11.10;6.53;;;12.10;96.00;;;;;;4996606;28;20551;-49
2022/03/15 12:06:17;;;;;;;6.17;5.50;;;12.00;95.40;;;;;;5002369;28;20840;-49
2022/03/15 12:08:52;;;;;;;9.77;6.43;;;12.00;96.00;;;;;;4998014;28;20895;-48
2022/03/15 12:11:32;;;;;;;9.40;5.70;;;12.20;96.50;;;;;;5005823;28;20585;-48
2022/03/15 12:14:08;;;;;;;9.47;5.70;;;12.20;95.80;;;;;;4997946;28;20847;-49
2022/03/15 12:16:37;;;;;;;7.43;4.57;;;12.30;95.80;;;;;;4991608;28;20487;-49
2022/03/15 12:19:13;;;;;;;13.00;5.80;;;12.20;96.30;;;;;;4999345;28;20972;-49
2022/03/15 12:21:50;;;;;;;6.70;4.90;;;12.30;96.00;;;;;;5000692;28;21647;-49
2022/03/15 12:24:19;;;;;;;10.77;6.03;;;12.30;95.90;;;;;;4999636;28;20484;-48
2022/03/15 12:26:58;;;;;;;15.00;5.50;;;12.40;96.50;;;;;;4999762;28;20484;-48
2022/03/15 12:29:27;;;;;;;8.57;5.10;;;12.60;96.80;;;;;;4996761;28;20473;-48
2022/03/15 12:31:55;;;;;;;16.27;6.63;;;12.70;96.70;;;;;;4995749;28;20924;-48
2022/03/15 12:34:22;;;;;;;14.73;6.63;;;12.80;96.20;;;;;;4999315;28;20562;-48
2022/03/15 12:36:50;;;;;;;10.13;6.00;;;12.70;96.30;;;;;;5000824;28;20537;-48
2022/03/15 12:39:19;;;;;;;15.67;4.83;;;12.70;96.00;;;;;;4995952;28;20478;-49
2022/03/15 12:41:46;;;;;;;10.23;4.53;;;12.60;95.90;;;;;;4999384;28;20513;-48